Cap Finistere — FLSO — position and weather

sailwx.info

Track history (hours):
 
Tides and Currents Weather Stations Pressure Air Temp Water Temp Dewpoint Dewpoint Depression Visibility Wind Speed Wind Dir Waves Ship Positions

Cap Finistere

Last reported at 2017-Sep-21 06:35 UTC. Time now 2017-Sep-21 10:37 UTC.
Position N 44°48' W 003°41'.

Length 204 m; draft 6.8 m.

Type: Ship. MMSI: 226318000.

Date/timePositionNaut miles runAvg speedWind from/ knotsBaromVisibWave heightAir tempDewpointWater temp
2017-Sep-21 06:35N 44°48' W 003°41'325.6
2017-Sep-21 06:29N 44°50' W 003°42'1825.9
2017-Sep-21 05:48N 45°07' W 003°48'825.6
2017-Sep-21 05:30N 45°15' W 003°51'1325.6
2017-Sep-21 04:59N 45°27' W 003°57'1725.3
2017-Sep-21 04:18N 45°44' W 004°02'925.0
2017-Sep-21 03:57N 45°53' W 004°04'1225.5
2017-Sep-21 03:30N 46°02' W 004°14'3024.6
2017-Sep-21 02:17N 46°31' W 004°27'623.2
2017-Sep-21 02:00N 46°37' W 004°30'1623.0
2017-Sep-21 01:20N 46°51' W 004°37'722.8
2017-Sep-21 01:00N 46°58' W 004°41'1222.8
2017-Sep-21 00:30N 47°09' W 004°46'1722.7
2017-Sep-20 23:44N 47°26' W 004°55'522.2
2017-Sep-20 23:30N 47°31' W 004°56'1122.3
2017-Sep-20 23:00N 47°42' W 004°60'1122.7
2017-Sep-20 22:30N 47°52' W 005°05'1723.2
2017-Sep-20 21:47N 48°09' W 005°10'723.9
2017-Sep-20 21:29N 48°16' W 005°08'1121.7
2017-Sep-20 21:00N 48°26' W 005°03'919.3
2017-Sep-20 20:31N 48°33' W 004°54'1224.6
2017-Sep-20 20:01N 48°43' W 004°43'1223.7
2017-Sep-20 19:30N 48°52' W 004°31'5421.9
2017-Sep-20 17:04N 49°31' W 003°35'221.7
2017-Sep-20 17:00N 49°32' W 003°34'1021.5
2017-Sep-20 16:30N 49°40' W 003°23'1020.5
2017-Sep-20 16:00N 49°47' W 003°11'1123.0
2017-Sep-20 15:31N 49°55' W 002°58'7025.2
2017-Sep-20 12:43N 50°28' W 001°21'625.6
2017-Sep-20 12:30N 50°30' W 001°14'1224.1
2017-Sep-20 12:00N 50°38' W 000°59'816.9
2017-Sep-20 11:30N 50°45' W 001°05'3 7.0
2017-Sep-20 11:00N 50°49' W 001°06'0 0.0
2017-Sep-20 10:31N 50°49' W 001°06'0 0.0
2017-Sep-20 10:00N 50°49' W 001°06'0 0.0
2017-Sep-20 09:30N 50°49' W 001°06'0 0.0
2017-Sep-20 09:00N 50°49' W 001°06'0 0.0
2017-Sep-20 08:30N 50°49' W 001°06'0 0.2
2017-Sep-20 08:01N 50°49' W 001°06'2 4.9
2017-Sep-20 07:30N 50°46' W 001°06'510.5
2017-Sep-20 07:00N 50°43' W 000°59'1020.9
2017-Sep-20 06:30N 50°32' W 001°01'1427.5
2017-Sep-20 06:00N 50°27' W 001°21'1427.1
2017-Sep-20 05:29N 50°19' W 001°39'1326.9
2017-Sep-20 05:00N 50°11' W 001°54'2025.7
2017-Sep-20 04:14N 49°59' W 002°19'1121.6
2017-Sep-20 03:45N 49°54' W 002°34'723.0
2017-Sep-20 03:27N 49°51' W 002°43'1522.8
2017-Sep-20 02:46N 49°42' W 003°02'923.0
2017-Sep-20 02:24N 49°36' W 003°13'923.1
2017-Sep-20 02:00N 49°30' W 003°23'1223.2
2017-Sep-20 01:30N 49°22' W 003°36'1223.2
2017-Sep-20 00:59N 49°14' W 003°49'1123.1
2017-Sep-20 00:30N 49°06' W 004°02'1122.9
2017-Sep-20 00:00N 48°58' W 004°14'1222.6
2017-Sep-19 23:28N 48°50' W 004°28'1022.1
2017-Sep-19 23:01N 48°43' W 004°39'1122.0
2017-Sep-19 22:31N 48°35' W 004°51'1020.9
2017-Sep-19 22:00N 48°27' W 005°01'917.7
2017-Sep-19 21:29N 48°19' W 005°08'1021.0
2017-Sep-19 21:01N 48°09' W 005°09'1323.9
2017-Sep-19 20:27N 47°56' W 005°06'1124.5
2017-Sep-19 20:00N 47°46' W 005°00'1324.4
2017-Sep-19 19:28N 47°33' W 004°58'1424.6
2017-Sep-19 18:55N 47°20' W 004°52'1024.6
2017-Sep-19 18:31N 47°10' W 004°48'20625.3
2017-Sep-19 10:22N 43°55' W 003°18'925.7
2017-Sep-19 10:01N 43°46' W 003°14'1325.3
2017-Sep-19 09:31N 43°34' W 003°08'1223.6
2017-Sep-19 09:00N 43°22' W 003°04'1 2.6
2017-Sep-19 08:31N 43°21' W 003°04'0 0.0
2017-Sep-19 08:01N 43°21' W 003°04'0 0.0
2017-Sep-19 07:31N 43°21' W 003°04'0 0.0
2017-Sep-19 07:01N 43°21' W 003°04'0 0.0
2017-Sep-19 06:30N 43°21' W 003°04'0 0.0
2017-Sep-19 06:01N 43°21' W 003°04'0 0.0
2017-Sep-19 05:30N 43°21' W 003°04'3 6.2
2017-Sep-19 05:01N 43°24' W 003°06'815.5
2017-Sep-19 04:31N 43°32' W 003°08'816.0
2017-Sep-19 04:01N 43°39' W 003°11'816.1
2017-Sep-19 03:31N 43°47' W 003°14'816.1
2017-Sep-19 03:00N 43°55' W 003°17'21118.1
2017-Sep-18 15:18N 47°20' W 004°29'3320.9
2017-Sep-18 13:44N 47°52' W 004°41'520.3
2017-Sep-18 13:31N 47°56' W 004°43'815.5
2017-Sep-18 13:01N 48°04' W 004°46'918.4
2017-Sep-18 12:31N 48°13' W 004°46'917.2
2017-Sep-18 12:01N 48°21' W 004°49'714.1
2017-Sep-18 11:30N 48°28' W 004°51'816.6
2017-Sep-18 11:00N 48°36' W 004°49'1019.9
2017-Sep-18 10:30N 48°43' W 004°38'1019.9
2017-Sep-18 10:00N 48°45' W 004°23'11313.5
2017-Sep-18 01:40N 49°47' W 001°59'421.8
2017-Sep-18 01:30N 49°51' W 001°56'1122.2
2017-Sep-18 01:00N 49°60' W 001°47'1122.8
2017-Sep-18 00:30N 50°08' W 001°35'1122.4
2017-Sep-18 00:00N 50°17' W 001°24'1422.2
2017-Sep-17 23:22N 50°29' W 001°12'821.8
2017-Sep-17 23:00N 50°36' W 001°05'816.2
2017-Sep-17 22:31N 50°43' W 001°00'611.3
2017-Sep-17 22:01N 50°47' W 001°06'2 3.4
2017-Sep-17 21:30N 50°49' W 001°06'0 0.0
2017-Sep-17 21:00N 50°49' W 001°06'0 0.0
2017-Sep-17 20:30N 50°49' W 001°06'0 0.0
2017-Sep-17 20:00N 50°49' W 001°06'0 0.0
2017-Sep-17 19:30N 50°49' W 001°06'0 0.0
2017-Sep-17 19:00N 50°49' W 001°06'0 0.2
2017-Sep-17 18:31N 50°49' W 001°06'2 4.8
2017-Sep-17 18:01N 50°46' W 001°06'815.5
2017-Sep-17 17:31N 50°40' W 000°58'1324.1
2017-Sep-17 16:59N 50°30' W 001°09'1927.4
2017-Sep-17 16:18N 50°19' W 001°33'827.0
2017-Sep-17 16:01N 50°14' W 001°42'1326.5
2017-Sep-17 15:30N 50°05' W 001°57'12422.8
2017-Sep-17 10:05N 48°50' W 004°30'222.4
2017-Sep-17 10:00N 48°49' W 004°32'1122.5
2017-Sep-17 09:31N 48°41' W 004°43'1122.5
2017-Sep-17 09:00N 48°32' W 004°54'917.5
2017-Sep-17 08:30N 48°26' W 005°03'1018.7
2017-Sep-17 08:00N 48°17' W 005°07'1222.7
2017-Sep-17 07:27N 48°05' W 005°10'1021.9
2017-Sep-17 07:00N 47°55' W 005°09'1522.5
2017-Sep-17 06:21N 47°41' W 005°03'24822.9
2017-Sep-16 19:31N 43°39' W 003°47'25315.6
2017-Sep-16 03:16N 47°46' W 005°05'1523.8
2017-Sep-16 02:38N 48°01' W 005°10'923.4
2017-Sep-16 02:14N 48°10' W 005°10'623.4
2017-Sep-16 01:58N 48°16' W 005°08'1020.8
2017-Sep-16 01:29N 48°26' W 005°04'918.0
2017-Sep-16 01:01N 48°32' W 004°55'1224.8
2017-Sep-16 00:31N 48°42' W 004°44'1224.5
2017-Sep-16 00:00N 48°50' W 004°29'5425.6
2017-Sep-15 21:53N 49°29' W 003°33'1026.7
2017-Sep-15 21:31N 49°37' W 003°23'1326.8
2017-Sep-15 21:01N 49°47' W 003°10'1427.1
2017-Sep-15 20:31N 49°57' W 002°55'6726.3
2017-Sep-15 17:58N 50°27' W 001°22'1124.5
2017-Sep-15 17:31N 50°33' W 001°07'1020.2
2017-Sep-15 17:01N 50°41' W 000°58'714.7
2017-Sep-15 16:30N 50°47' W 001°06'2 3.9
2017-Sep-15 16:00N 50°49' W 001°06'0 0.0
2017-Sep-15 15:30N 50°49' W 001°06'0 0.0
2017-Sep-15 15:00N 50°49' W 001°06'0 0.0
2017-Sep-15 14:30N 50°49' W 001°06'0 0.0
2017-Sep-15 14:01N 50°49' W 001°06'0 0.0
2017-Sep-15 13:30N 50°49' W 001°06'1 2.9
2017-Sep-15 13:01N 50°47' W 001°07'5 9.0
2017-Sep-15 12:31N 50°44' W 001°02'714.6
2017-Sep-15 12:01N 50°37' W 000°60'1121.3
2017-Sep-15 11:30N 50°31' W 001°14'1822.5
2017-Sep-15 10:44N 50°22' W 001°37'622.4
2017-Sep-15 10:29N 50°18' W 001°45'1021.9
2017-Sep-15 10:00N 50°12' W 001°57'3721.2
2017-Sep-15 08:16N 49°52' W 002°45'2522.2
2017-Sep-15 07:08N 49°35' W 003°15'6624.3
2017-Sep-15 04:25N 48°50' W 004°29'1024.5
2017-Sep-15 04:01N 48°43' W 004°39'1224.5
2017-Sep-15 03:31N 48°34' W 004°52'1020.4
2017-Sep-15 03:00N 48°26' W 005°02'1019.4
2017-Sep-15 02:29N 48°17' W 005°08'1224.6
2017-Sep-15 02:00N 48°05' W 005°11'6523.9
2017-Sep-14 23:17N 47°05' W 004°36'19724.3
2017-Sep-14 15:13N 43°56' W 003°17'524.1
2017-Sep-14 15:01N 43°52' W 003°15'1224.7
2017-Sep-14 14:31N 43°40' W 003°11'1225.0
2017-Sep-14 14:01N 43°27' W 003°08'713.4
2017-Sep-14 13:31N 43°21' W 003°04'0 0.3
2017-Sep-14 13:00N 43°21' W 003°04'0 0.0
2017-Sep-14 12:30N 43°21' W 003°04'0 0.0
2017-Sep-14 12:00N 43°21' W 003°04'0 0.0
2017-Sep-14 11:30N 43°21' W 003°04'0 0.0
2017-Sep-14 11:00N 43°21' W 003°04'27923.7
2017-Sep-13 23:14N 47°52' W 004°41'626.0
2017-Sep-13 23:01N 47°57' W 004°44'816.3
2017-Sep-13 22:30N 48°06' W 004°46'1224.9
2017-Sep-13 22:00N 48°18' W 004°46'714.5
2017-Sep-13 21:30N 48°25' W 004°49'815.3
2017-Sep-13 21:01N 48°32' W 004°51'1122.5
2017-Sep-13 20:31N 48°42' W 004°42'1223.7
2017-Sep-13 20:00N 48°51' W 004°29'5324.8
2017-Sep-13 17:51N 49°29' W 003°32'925.9
2017-Sep-13 17:31N 49°35' W 003°23'1325.9
2017-Sep-13 17:00N 49°45' W 003°10'1325.7
2017-Sep-13 16:31N 49°55' W 002°58'6923.7
2017-Sep-13 13:35N 50°28' W 001°23'222.5
2017-Sep-13 13:31N 50°29' W 001°21'1121.0
2017-Sep-13 13:00N 50°34' W 001°06'917.4
2017-Sep-13 12:31N 50°41' W 000°58'815.1
2017-Sep-13 12:01N 50°47' W 001°06'2 3.6
2017-Sep-13 11:31N 50°49' W 001°06'0 0.0
2017-Sep-13 11:01N 50°49' W 001°06'0 0.0
2017-Sep-13 10:31N 50°49' W 001°06'0 0.0
2017-Sep-13 10:01N 50°49' W 001°06'0 0.0
2017-Sep-13 09:31N 50°49' W 001°06'0 0.0
2017-Sep-13 09:01N 50°49' W 001°06'0 0.1
2017-Sep-13 08:31N 50°49' W 001°06'4 7.0
2017-Sep-13 08:00N 50°45' W 001°05'612.4
2017-Sep-13 07:30N 50°41' W 000°58'1021.0
2017-Sep-13 07:01N 50°33' W 001°09'1623.0
2017-Sep-13 06:18N 50°24' W 001°30'723.4
2017-Sep-13 06:00N 50°20' W 001°39'1223.5
2017-Sep-13 05:31N 50°14' W 001°54'1223.4
2017-Sep-13 05:00N 50°06' W 002°08'2924.2
2017-Sep-13 03:47N 49°49' W 002°46'1725.1
2017-Sep-13 03:07N 49°40' W 003°07'5924.8
2017-Sep-13 00:43N 48°59' W 004°14'924.8
2017-Sep-13 00:20N 48°52' W 004°24'825.0
2017-Sep-13 00:01N 48°47' W 004°33'1224.9
2017-Sep-12 23:31N 48°38' W 004°47'1019.1
2017-Sep-12 23:00N 48°29' W 004°51'714.3
2017-Sep-12 22:31N 48°22' W 004°49'918.5
2017-Sep-12 22:01N 48°13' W 004°45'1121.2
2017-Sep-12 21:31N 48°03' W 004°47'918.1
2017-Sep-12 21:00N 47°54' W 004°41'21 0.7
2017-Sep-11 15:51N 47°42' W 005°06'2016.5
2017-Sep-11 14:38N 48°01' W 005°15'917.6
2017-Sep-11 14:07N 48°10' W 005°15'218.0
2017-Sep-11 13:59N 48°13' W 005°14'817.4
2017-Sep-11 13:30N 48°20' W 005°09'816.0
2017-Sep-11 13:00N 48°27' W 005°02'816.2
2017-Sep-11 12:31N 48°33' W 004°54'917.9
2017-Sep-11 12:01N 48°39' W 004°45'916.8
2017-Sep-11 11:30N 48°42' W 004°33'816.5
2017-Sep-11 11:01N 48°45' W 004°21'  
Track history (hours):
 
Tides and Currents Weather Stations Pressure Air Temp Water Temp Dewpoint Dewpoint Depression Visibility Wind Speed Wind Dir Waves Ship Positions

Cap Finistere

Last reported at 2017-Sep-21 06:35 UTC. Time now 2017-Sep-21 10:37 UTC.
Position N 44°48' W 003°41'.

Length 204 m; draft 6.8 m.

Type: Ship. MMSI: 226318000.

Date/timePositionNaut miles runAvg speedWind from/ knotsBaromVisibWave heightAir tempDewpointWater temp
2017-Sep-21 06:35N 44°48' W 003°41'325.6
2017-Sep-21 06:29N 44°50' W 003°42'1825.9
2017-Sep-21 05:48N 45°07' W 003°48'825.6
2017-Sep-21 05:30N 45°15' W 003°51'1325.6
2017-Sep-21 04:59N 45°27' W 003°57'1725.3
2017-Sep-21 04:18N 45°44' W 004°02'925.0
2017-Sep-21 03:57N 45°53' W 004°04'1225.5
2017-Sep-21 03:30N 46°02' W 004°14'3024.6
2017-Sep-21 02:17N 46°31' W 004°27'623.2
2017-Sep-21 02:00N 46°37' W 004°30'1623.0
2017-Sep-21 01:20N 46°51' W 004°37'722.8
2017-Sep-21 01:00N 46°58' W 004°41'1222.8
2017-Sep-21 00:30N 47°09' W 004°46'1722.7
2017-Sep-20 23:44N 47°26' W 004°55'522.2
2017-Sep-20 23:30N 47°31' W 004°56'1122.3
2017-Sep-20 23:00N 47°42' W 004°60'1122.7
2017-Sep-20 22:30N 47°52' W 005°05'1723.2
2017-Sep-20 21:47N 48°09' W 005°10'723.9
2017-Sep-20 21:29N 48°16' W 005°08'1121.7
2017-Sep-20 21:00N 48°26' W 005°03'919.3
2017-Sep-20 20:31N 48°33' W 004°54'1224.6
2017-Sep-20 20:01N 48°43' W 004°43'1223.7
2017-Sep-20 19:30N 48°52' W 004°31'5421.9
2017-Sep-20 17:04N 49°31' W 003°35'221.7
2017-Sep-20 17:00N 49°32' W 003°34'1021.5
2017-Sep-20 16:30N 49°40' W 003°23'1020.5
2017-Sep-20 16:00N 49°47' W 003°11'1123.0
2017-Sep-20 15:31N 49°55' W 002°58'7025.2
2017-Sep-20 12:43N 50°28' W 001°21'625.6
2017-Sep-20 12:30N 50°30' W 001°14'1224.1
2017-Sep-20 12:00N 50°38' W 000°59'816.9
2017-Sep-20 11:30N 50°45' W 001°05'3 7.0
2017-Sep-20 11:00N 50°49' W 001°06'0 0.0
2017-Sep-20 10:31N 50°49' W 001°06'0 0.0
2017-Sep-20 10:00N 50°49' W 001°06'0 0.0
2017-Sep-20 09:30N 50°49' W 001°06'0 0.0
2017-Sep-20 09:00N 50°49' W 001°06'0 0.0
2017-Sep-20 08:30N 50°49' W 001°06'0 0.2
2017-Sep-20 08:01N 50°49' W 001°06'2 4.9
2017-Sep-20 07:30N 50°46' W 001°06'510.5
2017-Sep-20 07:00N 50°43' W 000°59'1020.9
2017-Sep-20 06:30N 50°32' W 001°01'1427.5
2017-Sep-20 06:00N 50°27' W 001°21'1427.1
2017-Sep-20 05:29N 50°19' W 001°39'1326.9
2017-Sep-20 05:00N 50°11' W 001°54'2025.7
2017-Sep-20 04:14N 49°59' W 002°19'1121.6
2017-Sep-20 03:45N 49°54' W 002°34'723.0
2017-Sep-20 03:27N 49°51' W 002°43'1522.8
2017-Sep-20 02:46N 49°42' W 003°02'923.0
2017-Sep-20 02:24N 49°36' W 003°13'923.1
2017-Sep-20 02:00N 49°30' W 003°23'1223.2
2017-Sep-20 01:30N 49°22' W 003°36'1223.2
2017-Sep-20 00:59N 49°14' W 003°49'1123.1
2017-Sep-20 00:30N 49°06' W 004°02'1122.9
2017-Sep-20 00:00N 48°58' W 004°14'1222.6
2017-Sep-19 23:28N 48°50' W 004°28'1022.1
2017-Sep-19 23:01N 48°43' W 004°39'1122.0
2017-Sep-19 22:31N 48°35' W 004°51'1020.9
2017-Sep-19 22:00N 48°27' W 005°01'917.7
2017-Sep-19 21:29N 48°19' W 005°08'1021.0
2017-Sep-19 21:01N 48°09' W 005°09'1323.9
2017-Sep-19 20:27N 47°56' W 005°06'1124.5
2017-Sep-19 20:00N 47°46' W 005°00'1324.4
2017-Sep-19 19:28N 47°33' W 004°58'1424.6
2017-Sep-19 18:55N 47°20' W 004°52'1024.6
2017-Sep-19 18:31N 47°10' W 004°48'20625.3
2017-Sep-19 10:22N 43°55' W 003°18'925.7
2017-Sep-19 10:01N 43°46' W 003°14'1325.3
2017-Sep-19 09:31N 43°34' W 003°08'1223.6
2017-Sep-19 09:00N 43°22' W 003°04'1 2.6
2017-Sep-19 08:31N 43°21' W 003°04'0 0.0
2017-Sep-19 08:01N 43°21' W 003°04'0 0.0
2017-Sep-19 07:31N 43°21' W 003°04'0 0.0
2017-Sep-19 07:01N 43°21' W 003°04'0 0.0
2017-Sep-19 06:30N 43°21' W 003°04'0 0.0
2017-Sep-19 06:01N 43°21' W 003°04'0 0.0
2017-Sep-19 05:30N 43°21' W 003°04'3 6.2
2017-Sep-19 05:01N 43°24' W 003°06'815.5
2017-Sep-19 04:31N 43°32' W 003°08'816.0
2017-Sep-19 04:01N 43°39' W 003°11'816.1
2017-Sep-19 03:31N 43°47' W 003°14'816.1
2017-Sep-19 03:00N 43°55' W 003°17'21118.1
2017-Sep-18 15:18N 47°20' W 004°29'3320.9
2017-Sep-18 13:44N 47°52' W 004°41'520.3
2017-Sep-18 13:31N 47°56' W 004°43'815.5
2017-Sep-18 13:01N 48°04' W 004°46'918.4
2017-Sep-18 12:31N 48°13' W 004°46'917.2
2017-Sep-18 12:01N 48°21' W 004°49'714.1
2017-Sep-18 11:30N 48°28' W 004°51'816.6
2017-Sep-18 11:00N 48°36' W 004°49'1019.9
2017-Sep-18 10:30N 48°43' W 004°38'1019.9
2017-Sep-18 10:00N 48°45' W 004°23'11313.5
2017-Sep-18 01:40N 49°47' W 001°59'421.8
2017-Sep-18 01:30N 49°51' W 001°56'1122.2
2017-Sep-18 01:00N 49°60' W 001°47'1122.8
2017-Sep-18 00:30N 50°08' W 001°35'1122.4
2017-Sep-18 00:00N 50°17' W 001°24'1422.2
2017-Sep-17 23:22N 50°29' W 001°12'821.8
2017-Sep-17 23:00N 50°36' W 001°05'816.2
2017-Sep-17 22:31N 50°43' W 001°00'611.3
2017-Sep-17 22:01N 50°47' W 001°06'2 3.4
2017-Sep-17 21:30N 50°49' W 001°06'0 0.0
2017-Sep-17 21:00N 50°49' W 001°06'0 0.0
2017-Sep-17 20:30N 50°49' W 001°06'0 0.0
2017-Sep-17 20:00N 50°49' W 001°06'0 0.0
2017-Sep-17 19:30N 50°49' W 001°06'0 0.0
2017-Sep-17 19:00N 50°49' W 001°06'0 0.2
2017-Sep-17 18:31N 50°49' W 001°06'2 4.8
2017-Sep-17 18:01N 50°46' W 001°06'815.5
2017-Sep-17 17:31N 50°40' W 000°58'1324.1
2017-Sep-17 16:59N 50°30' W 001°09'1927.4
2017-Sep-17 16:18N 50°19' W 001°33'827.0
2017-Sep-17 16:01N 50°14' W 001°42'1326.5
2017-Sep-17 15:30N 50°05' W 001°57'12422.8
2017-Sep-17 10:05N 48°50' W 004°30'222.4
2017-Sep-17 10:00N 48°49' W 004°32'1122.5
2017-Sep-17 09:31N 48°41' W 004°43'1122.5
2017-Sep-17 09:00N 48°32' W 004°54'917.5
2017-Sep-17 08:30N 48°26' W 005°03'1018.7
2017-Sep-17 08:00N 48°17' W 005°07'1222.7
2017-Sep-17 07:27N 48°05' W 005°10'1021.9
2017-Sep-17 07:00N 47°55' W 005°09'1522.5
2017-Sep-17 06:21N 47°41' W 005°03'24822.9
2017-Sep-16 19:31N 43°39' W 003°47'25315.6
2017-Sep-16 03:16N 47°46' W 005°05'1523.8
2017-Sep-16 02:38N 48°01' W 005°10'923.4
2017-Sep-16 02:14N 48°10' W 005°10'623.4
2017-Sep-16 01:58N 48°16' W 005°08'1020.8
2017-Sep-16 01:29N 48°26' W 005°04'918.0
2017-Sep-16 01:01N 48°32' W 004°55'1224.8
2017-Sep-16 00:31N 48°42' W 004°44'1224.5
2017-Sep-16 00:00N 48°50' W 004°29'5425.6
2017-Sep-15 21:53N 49°29' W 003°33'1026.7
2017-Sep-15 21:31N 49°37' W 003°23'1326.8
2017-Sep-15 21:01N 49°47' W 003°10'1427.1
2017-Sep-15 20:31N 49°57' W 002°55'6726.3
2017-Sep-15 17:58N 50°27' W 001°22'1124.5
2017-Sep-15 17:31N 50°33' W 001°07'1020.2
2017-Sep-15 17:01N 50°41' W 000°58'714.7
2017-Sep-15 16:30N 50°47' W 001°06'2 3.9
2017-Sep-15 16:00N 50°49' W 001°06'0 0.0
2017-Sep-15 15:30N 50°49' W 001°06'0 0.0
2017-Sep-15 15:00N 50°49' W 001°06'0 0.0
2017-Sep-15 14:30N 50°49' W 001°06'0 0.0
2017-Sep-15 14:01N 50°49' W 001°06'0 0.0
2017-Sep-15 13:30N 50°49' W 001°06'1 2.9
2017-Sep-15 13:01N 50°47' W 001°07'5 9.0
2017-Sep-15 12:31N 50°44' W 001°02'714.6
2017-Sep-15 12:01N 50°37' W 000°60'1121.3
2017-Sep-15 11:30N 50°31' W 001°14'1822.5
2017-Sep-15 10:44N 50°22' W 001°37'622.4
2017-Sep-15 10:29N 50°18' W 001°45'1021.9
2017-Sep-15 10:00N 50°12' W 001°57'3721.2
2017-Sep-15 08:16N 49°52' W 002°45'2522.2
2017-Sep-15 07:08N 49°35' W 003°15'6624.3
2017-Sep-15 04:25N 48°50' W 004°29'1024.5
2017-Sep-15 04:01N 48°43' W 004°39'1224.5
2017-Sep-15 03:31N 48°34' W 004°52'1020.4
2017-Sep-15 03:00N 48°26' W 005°02'1019.4
2017-Sep-15 02:29N 48°17' W 005°08'1224.6
2017-Sep-15 02:00N 48°05' W 005°11'6523.9
2017-Sep-14 23:17N 47°05' W 004°36'19724.3
2017-Sep-14 15:13N 43°56' W 003°17'524.1
2017-Sep-14 15:01N 43°52' W 003°15'1224.7
2017-Sep-14 14:31N 43°40' W 003°11'1225.0
2017-Sep-14 14:01N 43°27' W 003°08'713.4
2017-Sep-14 13:31N 43°21' W 003°04'0 0.3
2017-Sep-14 13:00N 43°21' W 003°04'0 0.0
2017-Sep-14 12:30N 43°21' W 003°04'0 0.0
2017-Sep-14 12:00N 43°21' W 003°04'0 0.0
2017-Sep-14 11:30N 43°21' W 003°04'0 0.0
2017-Sep-14 11:00N 43°21' W 003°04'27923.7
2017-Sep-13 23:14N 47°52' W 004°41'626.0
2017-Sep-13 23:01N 47°57' W 004°44'816.3
2017-Sep-13 22:30N 48°06' W 004°46'1224.9
2017-Sep-13 22:00N 48°18' W 004°46'714.5
2017-Sep-13 21:30N 48°25' W 004°49'815.3
2017-Sep-13 21:01N 48°32' W 004°51'1122.5
2017-Sep-13 20:31N 48°42' W 004°42'1223.7
2017-Sep-13 20:00N 48°51' W 004°29'5324.8
2017-Sep-13 17:51N 49°29' W 003°32'925.9
2017-Sep-13 17:31N 49°35' W 003°23'1325.9
2017-Sep-13 17:00N 49°45' W 003°10'1325.7
2017-Sep-13 16:31N 49°55' W 002°58'6923.7
2017-Sep-13 13:35N 50°28' W 001°23'222.5
2017-Sep-13 13:31N 50°29' W 001°21'1121.0
2017-Sep-13 13:00N 50°34' W 001°06'917.4
2017-Sep-13 12:31N 50°41' W 000°58'815.1
2017-Sep-13 12:01N 50°47' W 001°06'2 3.6
2017-Sep-13 11:31N 50°49' W 001°06'0 0.0
2017-Sep-13 11:01N 50°49' W 001°06'0 0.0
2017-Sep-13 10:31N 50°49' W 001°06'0 0.0
2017-Sep-13 10:01N 50°49' W 001°06'0 0.0
2017-Sep-13 09:31N 50°49' W 001°06'0 0.0
2017-Sep-13 09:01N 50°49' W 001°06'0 0.1
2017-Sep-13 08:31N 50°49' W 001°06'4 7.0
2017-Sep-13 08:00N 50°45' W 001°05'612.4
2017-Sep-13 07:30N 50°41' W 000°58'1021.0
2017-Sep-13 07:01N 50°33' W 001°09'1623.0
2017-Sep-13 06:18N 50°24' W 001°30'723.4
2017-Sep-13 06:00N 50°20' W 001°39'1223.5
2017-Sep-13 05:31N 50°14' W 001°54'1223.4
2017-Sep-13 05:00N 50°06' W 002°08'2924.2
2017-Sep-13 03:47N 49°49' W 002°46'1725.1
2017-Sep-13 03:07N 49°40' W 003°07'5924.8
2017-Sep-13 00:43N 48°59' W 004°14'924.8
2017-Sep-13 00:20N 48°52' W 004°24'825.0
2017-Sep-13 00:01N 48°47' W 004°33'1224.9
2017-Sep-12 23:31N 48°38' W 004°47'1019.1
2017-Sep-12 23:00N 48°29' W 004°51'714.3
2017-Sep-12 22:31N 48°22' W 004°49'918.5
2017-Sep-12 22:01N 48°13' W 004°45'1121.2
2017-Sep-12 21:31N 48°03' W 004°47'918.1
2017-Sep-12 21:00N 47°54' W 004°41'21 0.7
2017-Sep-11 15:51N 47°42' W 005°06'2016.5
2017-Sep-11 14:38N 48°01' W 005°15'917.6
2017-Sep-11 14:07N 48°10' W 005°15'218.0
2017-Sep-11 13:59N 48°13' W 005°14'817.4
2017-Sep-11 13:30N 48°20' W 005°09'816.0
2017-Sep-11 13:00N 48°27' W 005°02'816.2
2017-Sep-11 12:31N 48°33' W 004°54'917.9
2017-Sep-11 12:01N 48°39' W 004°45'916.8
2017-Sep-11 11:30N 48°42' W 004°33'816.5
2017-Sep-11 11:01N 48°45' W 004°21'  

Dump ship's entire track history